createdAt,value
2022-11-29T14:36:52.080Z,7.2
2022-11-29T14:40:00.159Z,7.1
2022-11-29T14:43:12.348Z,6.9
2022-11-29T14:44:00.942Z,7
2022-11-29T14:45:00.217Z,7.1
2022-11-29T14:46:00.774Z,7.1
2022-11-29T14:47:00.405Z,7.2
2022-11-29T14:48:01.010Z,7.2
2022-11-29T14:49:00.705Z,7.2
2022-11-29T14:50:00.256Z,7.1
2022-11-29T14:51:00.838Z,6.9
2022-11-29T14:52:00.396Z,7
2022-11-29T14:53:00.966Z,7.1
2022-11-29T14:54:00.526Z,7.2
2022-11-29T14:55:01.101Z,7.2
2022-11-29T14:56:00.687Z,7.3
2022-11-29T14:57:00.269Z,7.3
2022-11-29T14:58:00.835Z,7.3
2022-11-29T14:59:00.423Z,7.1
2022-11-29T15:00:00.989Z,7
2022-11-29T15:01:03.892Z,7
2022-11-29T15:02:00.188Z,7.1
2022-11-29T15:03:00.784Z,7.2
2022-11-29T15:04:00.364Z,7.3
2022-11-29T15:05:00.932Z,7.3
2022-11-29T15:06:00.499Z,7.3
2022-11-29T15:07:00.080Z,7.3
2022-11-29T15:08:00.684Z,7.1
2022-11-29T15:09:00.268Z,6.9
2022-11-29T15:10:00.836Z,6.8
2022-11-29T15:11:00.417Z,7
2022-11-29T15:12:00.968Z,7.1
2022-11-29T15:13:00.549Z,7.1
2022-11-29T15:14:00.138Z,7.2
2022-11-29T15:15:00.712Z,7.2
2022-11-29T15:16:04.359Z,7.2
2022-11-29T15:17:00.787Z,7
2022-11-29T15:18:00.335Z,6.9
2022-11-29T15:19:00.915Z,6.8
2022-11-29T15:20:00.451Z,6.9
2022-11-29T15:21:01.031Z,7.1
2022-11-29T15:22:00.828Z,7.1
2022-11-29T15:23:00.384Z,7.2
2022-11-29T15:24:00.990Z,7.2
2022-11-29T15:25:00.557Z,7.2
2022-11-29T15:26:00.148Z,7
2022-11-29T15:27:00.718Z,6.9
2022-11-29T15:28:00.284Z,6.8
2022-11-29T15:29:00.856Z,6.8
2022-11-29T15:30:00.436Z,6.9
2022-11-29T15:31:00.006Z,7.1
2022-11-29T15:32:00.640Z,7.1
2022-11-29T15:33:00.240Z,7.2
2022-11-29T15:34:00.811Z,7.2
2022-11-29T15:35:00.386Z,7.2
2022-11-29T15:36:00.933Z,6.9
2022-11-29T15:37:00.495Z,6.9
2022-11-29T15:38:00.085Z,6.9
2022-11-29T15:39:00.637Z,7
2022-11-29T15:40:00.319Z,7.1
2022-11-29T15:40:59.972Z,7.1
2022-11-29T15:42:00.535Z,7.1
2022-11-29T15:43:00.124Z,7.1
2022-11-29T15:44:00.749Z,7.1
2022-11-29T15:45:00.328Z,7
2022-11-29T15:46:00.910Z,6.8
2022-11-29T15:47:00.489Z,6.7
2022-11-29T15:48:00.031Z,6.7
2022-11-29T15:49:00.594Z,6.9
2022-11-29T15:50:00.266Z,6.9
2022-11-29T15:51:00.861Z,7
2022-11-29T15:52:00.432Z,7
2022-11-29T15:53:00.011Z,7
2022-11-29T15:54:11.979Z,7
2022-11-29T15:55:00.152Z,6.8
2022-11-29T15:56:00.714Z,6.6
2022-11-29T15:57:00.277Z,6.6
2022-11-29T15:58:05.496Z,6.8
2022-11-29T15:59:00.375Z,6.9
2022-11-29T15:59:59.970Z,7
2022-11-29T16:01:00.601Z,7
2022-11-29T16:02:00.315Z,7
2022-11-29T16:02:59.940Z,7
2022-11-29T16:04:00.534Z,6.8
2022-11-29T16:05:00.086Z,6.7
2022-11-29T16:06:00.664Z,6.7
2022-11-29T16:07:00.231Z,6.7
2022-11-29T16:08:00.892Z,6.9
2022-11-29T16:09:00.499Z,6.9
2022-11-29T16:10:00.222Z,7
2022-11-29T16:11:00.867Z,7
2022-11-29T16:12:00.439Z,7
2022-11-29T16:13:00.021Z,6.9
2022-11-29T16:14:00.577Z,6.9
2022-11-29T16:15:00.158Z,6.7
2022-11-29T16:16:00.765Z,6.8
2022-11-29T16:17:00.412Z,6.9
2022-11-29T16:17:59.958Z,7
2022-11-29T16:19:00.517Z,7
2022-11-29T16:20:00.180Z,7
2022-11-29T16:21:00.833Z,7
2022-11-29T16:22:00.397Z,6.9
2022-11-29T16:22:59.959Z,6.7
2022-11-29T16:24:00.510Z,6.6
2022-11-29T16:25:00.076Z,6.6
2022-11-29T16:26:00.630Z,6.8
2022-11-29T16:27:00.201Z,6.9
2022-11-29T16:28:00.773Z,7
2022-11-29T16:29:00.371Z,7
2022-11-29T16:29:59.950Z,7
2022-11-29T16:31:00.541Z,7
2022-11-29T16:32:00.156Z,6.7
2022-11-29T16:33:00.756Z,6.6
2022-11-29T16:34:00.310Z,6.6
2022-11-29T16:34:59.900Z,6.7
2022-11-29T16:36:00.467Z,6.8
2022-11-29T16:37:01.087Z,6.9
2022-11-29T16:38:00.816Z,6.9
2022-11-29T16:39:00.381Z,6.9
2022-11-29T16:39:59.973Z,7
2022-11-29T16:41:00.558Z,6.7
2022-11-29T16:42:00.134Z,6.7
2022-11-29T16:43:00.694Z,6.7
2022-11-29T16:44:00.282Z,6.8
2022-11-29T16:45:00.059Z,6.9
2022-11-29T16:46:00.657Z,7
2022-11-29T16:47:00.263Z,7
2022-11-29T16:47:59.825Z,7
2022-11-29T16:49:00.405Z,7
2022-11-29T16:49:59.962Z,6.9
2022-11-29T16:51:00.536Z,6.7
2022-11-29T16:52:00.091Z,6.6
2022-11-29T16:53:00.661Z,6.7
2022-11-29T16:54:00.224Z,6.9
2022-11-29T16:54:59.798Z,6.9
2022-11-29T16:56:02.347Z,6.9
2022-11-29T16:56:50.259Z,6.9
2022-11-29T17:00:00.800Z,6.6
2022-11-29T17:30:00.283Z,6.5
2022-11-29T17:59:59.729Z,6.9
2022-11-29T18:30:00.961Z,6.9
2022-11-29T19:00:00.426Z,6.7
2022-11-29T19:29:59.778Z,6.7
2022-11-29T19:59:59.979Z,6.9
2022-11-29T20:30:00.159Z,6.9
2022-11-29T20:59:59.493Z,6.5
2022-11-29T21:30:00.731Z,6.8
2022-11-29T22:00:01.181Z,6.9
2022-11-29T22:30:02.338Z,6.3
2022-11-29T23:00:02.316Z,6.4
2022-11-29T23:30:01.672Z,6.4
